Time;durP1;ratioP1;P1;durP2;ratioP2;P2;SDS_P1;SDS_P2;PMS_P1;PMS_P2;Temp;Humidity;BMP_temperature;BMP_pressure;BME280_temperature;BME280_humidity;BME280_pressure;Samples;Min_cycle;Max_cycle;Signal;HPM_P1;HPM_P2
2021/12/03 00:02:15;;;;;;;;;;;;;;;22.84;27.03;97044.13;5076633;28;770;-75
2021/12/03 00:04:40;;;;;;;;;;;;;;;22.55;26.98;97051.13;5076532;28;759;-75
2021/12/03 00:07:06;;;;;;;;;;;;;;;22.21;27.57;97043.75;5076583;28;813;-75
2021/12/03 00:09:35;;;;;;;;;;;;;;;22.28;27.53;97037.78;5076556;28;771;-75
2021/12/03 00:12:01;;;;;;;;;;;;;;;22.64;27.68;97033.34;5073754;28;1019;-75
2021/12/03 00:14:26;;;;;;;;;;;;;;;22.87;27.01;97026.97;5076223;28;691;-75
2021/12/03 00:16:52;;;;;;;;;;;;;;;22.71;26.99;97032.22;5075795;28;888;-75
2021/12/03 00:19:17;;;;;;;;;;;;;;;22.27;27.34;97036.19;5075933;28;1910;-75
2021/12/03 00:21:42;;;;;;;;;;;;;;;22.21;27.51;97031.63;5075767;28;969;-75
2021/12/03 00:24:08;;;;;;;;;;;;;;;22.29;27.47;97033.69;5076347;28;936;-75
2021/12/03 00:26:33;;;;;;;;;;;;;;;22.66;27.33;97033.63;5076017;28;1016;-75
2021/12/03 00:28:59;;;;;;;;;;;;;;;22.81;26.80;97028.88;5073146;28;1151;-75
2021/12/03 00:31:24;;;;;;;;;;;;;;;22.68;26.59;97031.09;5073870;28;951;-75
2021/12/03 00:33:49;;;;;;;;;;;;;;;22.33;27.54;97028.66;5073357;28;1134;-75
2021/12/03 00:36:15;;;;;;;;;;;;;;;22.47;27.18;97026.41;5093708;28;992;-75
2021/12/03 00:38:43;;;;;;;;;;;;;;;22.41;27.48;97029.09;5093185;28;1142;-75
2021/12/03 00:41:11;;;;;;;;;;;;;;;22.57;27.38;97023.09;5093703;28;1981;-75
2021/12/03 00:43:43;;;;;;;;;;;;;;;22.84;26.86;97027.13;5060340;28;1033;-75
2021/12/03 00:46:10;;;;;;;;;;;;;;;22.63;26.93;97023.22;5033194;28;999;-75
2021/12/03 00:48:36;;;;;;;;;;;;;;;22.39;27.19;97030.84;5033196;28;956;-75
2021/12/03 00:51:01;;;;;;;;;;;;;;;22.13;28.18;97027.56;5033501;28;1024;-75
2021/12/03 00:53:27;;;;;;;;;;;;;;;22.80;26.95;97018.78;5033522;28;1004;-75
2021/12/03 00:55:52;;;;;;;;;;;;;;;22.79;27.00;97019.25;5033360;28;1023;-75
2021/12/03 00:58:18;;;;;;;;;;;;;;;22.57;27.02;97025.13;5033480;28;1171;-75
2021/12/03 01:00:43;;;;;;;;;;;;;;;22.26;27.25;97028.16;5033312;28;1985;-75
2021/12/03 01:03:08;;;;;;;;;;;;;;;22.12;27.65;97040.91;5033506;28;971;-75
2021/12/03 01:05:34;;;;;;;;;;;;;;;22.63;27.61;97035.34;5033109;28;989;-75
2021/12/03 01:07:59;;;;;;;;;;;;;;;22.76;27.09;97031.56;5033115;28;918;-74
2021/12/03 01:10:25;;;;;;;;;;;;;;;22.76;26.73;97040.84;5016471;28;991;-75
2021/12/03 01:12:51;;;;;;;;;;;;;;;22.33;27.45;97039.97;5032615;28;1004;-75
2021/12/03 01:15:17;;;;;;;;;;;;;;;22.14;27.50;97038.41;5033269;28;792;-75
2021/12/03 01:17:42;;;;;;;;;;;;;;;22.15;27.59;97034.31;5064550;28;1082;-75
2021/12/03 01:20:08;;;;;;;;;;;;;;;22.61;27.28;97032.22;5075138;28;1969;-75
2021/12/03 01:22:34;;;;;;;;;;;;;;;22.77;27.18;97022.56;5075650;28;786;-75
2021/12/03 01:24:59;;;;;;;;;;;;;;;22.67;27.01;97018.19;5075199;28;731;-75
2021/12/03 01:27:25;;;;;;;;;;;;;;;22.49;27.11;97024.69;5075124;28;754;-75
2021/12/03 01:29:50;;;;;;;;;;;;;;;22.25;27.34;97030.22;5075183;28;752;-75
2021/12/03 01:32:16;;;;;;;;;;;;;;;22.12;27.90;97015.41;5056582;28;1016;-75
2021/12/03 01:34:41;;;;;;;;;;;;;;;22.64;27.23;97007.81;5079090;28;746;-75
2021/12/03 01:37:07;;;;;;;;;;;;;;;22.92;26.74;97010.59;5079066;28;876;-75
2021/12/03 01:39:33;;;;;;;;;;;;;;;22.69;26.92;97007.16;5079182;28;1972;-74
2021/12/03 01:41:58;;;;;;;;;;;;;;;22.30;27.37;97018.25;5079253;28;1036;-75
2021/12/03 01:44:23;;;;;;;;;;;;;;;22.12;27.79;97001.25;5079402;28;775;-75
2021/12/03 01:46:49;;;;;;;;;;;;;;;22.28;27.96;97015.09;5079359;28;810;-75
2021/12/03 01:49:14;;;;;;;;;;;;;;;22.71;27.05;97012.34;5078763;28;771;-75
2021/12/03 01:51:41;;;;;;;;;;;;;;;22.76;27.22;97014.56;5059850;28;1053;-75
2021/12/03 01:54:06;;;;;;;;;;;;;;;22.51;27.03;97015.69;5078923;28;711;-75
2021/12/03 01:56:32;;;;;;;;;;;;;;;22.41;27.02;97016.97;5093509;28;901;-76
2021/12/03 01:58:57;;;;;;;;;;;;;;;22.41;27.33;97017.75;5078729;28;963;-75
2021/12/03 02:01:23;;;;;;;;;;;;;;;22.61;27.53;97020.09;5079289;28;1971;-75
2021/12/03 02:03:50;;;;;;;;;;;;;;;22.77;27.13;97016.91;5078545;28;735;-75
2021/12/03 02:06:15;;;;;;;;;;;;;;;22.79;26.78;97008.69;5078627;28;835;-75
2021/12/03 02:08:41;;;;;;;;;;;;;;;22.25;27.92;97010.38;5078264;28;1182;-75
2021/12/03 02:11:06;;;;;;;;;;;;;;;22.36;27.55;97019.19;5078544;28;1029;-75
2021/12/03 02:13:32;;;;;;;;;;;;;;;22.23;28.33;97012.13;5076029;28;989;-75
2021/12/03 02:15:57;;;;;;;;;;;;;;;22.58;27.46;97009.69;5078500;28;968;-75
2021/12/03 02:18:23;;;;;;;;;;;;;;;22.70;27.43;97008.75;5076121;28;1048;-75
2021/12/03 02:20:55;;;;;;;;;;;;;;;22.41;27.38;97008.47;5075801;28;2196;-75
2021/12/03 02:23:20;;;;;;;;;;;;;;;22.34;27.38;97013.22;5075847;28;993;-75
2021/12/03 02:25:46;;;;;;;;;;;;;;;22.19;27.57;97012.28;5076144;28;948;-75
2021/12/03 02:28:12;;;;;;;;;;;;;;;22.60;27.34;97010.03;5075768;28;947;-75
2021/12/03 02:30:37;;;;;;;;;;;;;;;22.81;26.93;97009.03;5075860;28;1027;-75
2021/12/03 02:33:03;;;;;;;;;;;;;;;22.74;26.58;96998.03;5075823;28;972;-75
2021/12/03 02:35:28;;;;;;;;;;;;;;;22.36;27.28;96993.66;5075675;28;1336;-75
2021/12/03 02:37:54;;;;;;;;;;;;;;;22.21;27.55;96992.75;5075344;28;1066;-75
2021/12/03 02:40:20;;;;;;;;;;;;;;;22.23;27.48;96998.75;5075343;28;1910;-75
2021/12/03 02:42:45;;;;;;;;;;;;;;;22.56;27.48;96983.88;5075795;28;956;-75
2021/12/03 02:45:11;;;;;;;;;;;;;;;22.77;27.01;96988.53;5034519;28;978;-75
2021/12/03 02:47:36;;;;;;;;;;;;;;;22.69;26.98;96995.84;4996023;28;1012;-75
2021/12/03 02:50:02;;;;;;;;;;;;;;;22.24;27.37;96997.47;4996221;28;1037;-76
2021/12/03 02:52:28;;;;;;;;;;;;;;;22.13;28.01;96985.06;5010966;28;1014;-75
2021/12/03 02:54:53;;;;;;;;;;;;;;;22.49;27.67;96989.91;5016003;28;1022;-75
2021/12/03 02:57:19;;;;;;;;;;;;;;;22.70;27.41;96996.63;5016028;28;984;-75
2021/12/03 02:59:44;;;;;;;;;;;;;;;22.70;27.45;96994.56;5015824;28;1903;-75
2021/12/03 03:02:10;;;;;;;;;;;;;;;22.23;27.57;97001.56;5015401;28;1132;-75
2021/12/03 03:04:35;;;;;;;;;;;;;;;22.28;27.24;96995.28;5015334;28;963;-75
2021/12/03 03:07:01;;;;;;;;;;;;;;;22.30;27.31;97000.47;5015378;28;933;-75
2021/12/03 03:09:26;;;;;;;;;;;;;;;22.35;27.40;96992.09;5015420;28;1023;-75
2021/12/03 03:11:52;;;;;;;;;;;;;;;22.69;27.40;96993.00;5015465;28;1256;-75
2021/12/03 03:14:17;;;;;;;;;;;;;;;22.93;26.87;97000.81;4975768;28;1016;-75
2021/12/03 03:16:43;;;;;;;;;;;;;;;22.71;26.99;97001.78;4976283;28;970;-75
2021/12/03 03:19:11;;;;;;;;;;;;;;;22.34;27.70;97007.53;5003979;28;1907;-76
2021/12/03 03:21:37;;;;;;;;;;;;;;;22.18;28.00;97010.72;4979485;28;998;-76
2021/12/03 03:24:03;;;;;;;;;;;;;;;22.44;28.00;97010.38;5015160;28;1103;-76
2021/12/03 03:26:28;;;;;;;;;;;;;;;22.64;27.60;97019.16;4998752;28;961;-75
2021/12/03 03:28:57;;;;;;;;;;;;;;;22.73;27.13;97021.94;4995045;28;1104;-75
2021/12/03 03:31:22;;;;;;;;;;;;;;;22.47;27.24;97024.34;4995599;28;1183;-75
2021/12/03 03:33:47;;;;;;;;;;;;;;;22.44;27.34;97021.72;4995273;28;953;-75
2021/12/03 03:36:13;;;;;;;;;;;;;;;22.47;28.07;97012.25;4995421;28;1165;-75
2021/12/03 03:38:38;;;;;;;;;;;;;;;22.82;27.03;97019.09;4994969;28;1648;-75
2021/12/03 03:41:04;;;;;;;;;;;;;;;22.76;27.18;97009.66;4995787;28;1981;-74
2021/12/03 03:43:29;;;;;;;;;;;;;;;22.99;26.91;97016.69;4995025;28;1094;-75
2021/12/03 03:45:55;;;;;;;;;;;;;;;22.66;26.94;97010.94;4978703;28;1134;-75
2021/12/03 03:48:20;;;;;;;;;;;;;;;22.48;27.27;97010.97;4994756;28;1212;-75
2021/12/03 03:50:46;;;;;;;;;;;;;;;22.44;27.30;97007.53;4999364;28;1022;-75
2021/12/03 03:53:11;;;;;;;;;;;;;;;22.05;28.25;97015.69;5049304;28;1004;-75
2021/12/03 03:55:37;;;;;;;;;;;;;;;22.12;27.99;97018.25;5053865;28;1045;-75
2021/12/03 03:58:02;;;;;;;;;;;;;;;22.41;28.08;97022.66;5033499;28;1047;-75
2021/12/03 04:00:32;;;;;;;;;;;;;;;22.82;26.94;97010.59;5017672;28;1981;-76
2021/12/03 04:02:57;;;;;;;;;;;;;;;22.80;26.88;97015.97;4994607;28;976;-75
2021/12/03 04:05:23;;;;;;;;;;;;;;;22.33;27.65;97011.66;4998946;28;975;-75
2021/12/03 04:07:48;;;;;;;;;;;;;;;22.42;27.24;97012.88;5034435;28;965;-75
2021/12/03 04:10:13;;;;;;;;;;;;;;;22.17;28.05;97014.78;5034018;28;1058;-75
2021/12/03 04:12:39;;;;;;;;;;;;;;;22.67;27.69;97006.84;5034296;28;958;-75
2021/12/03 04:15:06;;;;;;;;;;;;;;;22.85;27.22;97001.13;5017509;28;943;-75
2021/12/03 04:17:31;;;;;;;;;;;;;;;22.87;27.01;97009.16;5034145;28;1028;-75
2021/12/03 04:19:57;;;;;;;;;;;;;;;22.44;27.19;96999.03;5017043;28;1906;-75
2021/12/03 04:22:25;;;;;;;;;;;;;;;22.26;27.43;97000.59;5034034;28;961;-75
2021/12/03 04:24:51;;;;;;;;;;;;;;;22.50;27.84;97005.63;5033632;28;1072;-74
2021/12/03 04:27:17;;;;;;;;;;;;;;;22.60;27.62;97012.84;5033961;28;983;-75
2021/12/03 04:29:42;;;;;;;;;;;;;;;22.87;27.08;97007.09;5049242;28;946;-74
2021/12/03 04:32:08;;;;;;;;;;;;;;;22.50;27.73;97014.13;5053815;28;1082;-75
2021/12/03 04:34:34;;;;;;;;;;;;;;;22.31;27.45;97016.97;5070211;28;919;-75
2021/12/03 04:36:59;;;;;;;;;;;;;;;22.49;27.07;97018.25;5076477;28;987;-75
2021/12/03 04:39:24;;;;;;;;;;;;;;;22.61;27.55;97009.53;5075810;28;1902;-75
2021/12/03 04:41:50;;;;;;;;;;;;;;;22.79;27.17;97007.91;5057492;28;968;-76
2021/12/03 04:44:15;;;;;;;;;;;;;;;22.86;26.85;97019.72;5075783;28;961;-76
2021/12/03 04:46:41;;;;;;;;;;;;;;;22.59;27.28;97023.41;5076008;28;1029;-75
2021/12/03 04:49:06;;;;;;;;;;;;;;;22.30;27.47;97014.63;5075726;28;907;-75
2021/12/03 04:51:32;;;;;;;;;;;;;;;22.41;27.25;97023.44;5075725;28;949;-74
2021/12/03 04:53:57;;;;;;;;;;;;;;;22.30;28.34;97018.25;5075661;28;975;-75
2021/12/03 04:56:22;;;;;;;;;;;;;;;22.76;27.31;97021.00;5075825;28;925;-75
2021/12/03 04:58:48;;;;;;;;;;;;;;;22.79;27.21;97020.03;5075642;28;909;-75
2021/12/03 05:01:13;;;;;;;;;;;;;;;22.28;27.99;97015.09;5075722;28;1918;-75
2021/12/03 05:03:39;;;;;;;;;;;;;;;22.08;28.17;97011.94;5075568;28;912;-75
2021/12/03 05:06:08;;;;;;;;;;;;;;;22.20;27.49;97016.69;5075901;28;904;-75
2021/12/03 05:08:33;;;;;;;;;;;;;;;22.22;27.91;97022.66;5078220;28;906;-75
2021/12/03 05:10:59;;;;;;;;;;;;;;;22.53;27.74;97013.16;5080213;28;1097;-75
2021/12/03 05:13:25;;;;;;;;;;;;;;;22.68;27.74;97019.75;5079362;28;910;-75
2021/12/03 05:15:51;;;;;;;;;;;;;;;22.56;27.29;97017.91;5080100;28;960;-75
2021/12/03 05:18:17;;;;;;;;;;;;;;;22.48;27.41;97016.63;5079491;28;986;-75
2021/12/03 05:20:43;;;;;;;;;;;;;;;22.32;27.68;97021.38;5079781;28;1909;-75
2021/12/03 05:23:08;;;;;;;;;;;;;;;22.56;27.98;97020.72;5079531;28;1077;-75
2021/12/03 05:25:34;;;;;;;;;;;;;;;22.87;27.21;97015.63;5080001;28;1025;-75
2021/12/03 05:27:59;;;;;;;;;;;;;;;22.87;27.26;97004.25;5079322;28;908;-75
2021/12/03 05:30:25;;;;;;;;;;;;;;;22.50;27.34;97016.97;5079496;28;1001;-75
2021/12/03 05:32:50;;;;;;;;;;;;;;;22.21;28.03;97021.06;5079396;28;962;-75
2021/12/03 05:35:16;;;;;;;;;;;;;;;22.33;27.97;97022.97;5079257;28;1078;-75
2021/12/03 05:37:41;;;;;;;;;;;;;;;22.75;27.48;97039.28;5079222;28;1368;-75
2021/12/03 05:40:07;;;;;;;;;;;;;;;22.91;27.24;97015.47;5079164;28;1895;-75
2021/12/03 05:42:33;;;;;;;;;;;;;;;22.61;27.15;97029.38;5079090;28;966;-76
2021/12/03 05:44:58;;;;;;;;;;;;;;;22.44;27.74;97022.50;5078252;28;911;-75
2021/12/03 05:47:24;;;;;;;;;;;;;;;22.50;27.45;97043.28;5078765;28;877;-75
2021/12/03 05:49:49;;;;;;;;;;;;;;;22.50;27.61;97042.47;5078764;28;1126;-75
2021/12/03 05:52:15;;;;;;;;;;;;;;;22.72;27.76;97042.28;5079086;28;890;-75
2021/12/03 05:54:40;;;;;;;;;;;;;;;22.90;27.06;97035.78;5078630;28;1149;-75
2021/12/03 05:57:06;;;;;;;;;;;;;;;22.53;27.43;97024.50;5059928;28;963;-75
2021/12/03 05:59:31;;;;;;;;;;;;;;;22.29;27.58;97028.00;5078699;28;1960;-75
2021/12/03 06:01:57;;;;;;;;;;;;;;;22.29;27.28;97025.19;5059841;28;947;-75
2021/12/03 06:04:22;;;;;;;;;;;;;;;22.45;28.50;97034.63;5078836;28;962;-75
2021/12/03 06:06:48;;;;;;;;;;;;;;;22.75;27.46;97035.66;5078839;28;969;-75
2021/12/03 06:09:13;;;;;;;;;;;;;;;22.88;27.26;97034.22;5078617;28;922;-76
2021/12/03 06:11:39;;;;;;;;;;;;;;;22.53;27.69;97030.97;5076359;28;1474;-76
2021/12/03 06:14:04;;;;;;;;;;;;;;;22.39;27.62;97040.13;5075750;28;1020;-76
2021/12/03 06:16:30;;;;;;;;;;;;;;;22.22;27.43;97039.66;5076388;28;1043;-76
2021/12/03 06:18:55;;;;;;;;;;;;;;;22.54;28.30;97043.13;5075014;28;1033;-76
2021/12/03 06:21:21;;;;;;;;;;;;;;;22.76;27.58;97049.38;5059299;28;1965;-76
2021/12/03 06:23:47;;;;;;;;;;;;;;;22.67;27.46;97046.53;5075893;28;986;-76
2021/12/03 06:26:12;;;;;;;;;;;;;;;22.52;27.50;97054.13;5076593;28;981;-75
2021/12/03 06:28:38;;;;;;;;;;;;;;;22.55;27.39;97056.03;5075713;28;1119;-76
2021/12/03 06:31:03;;;;;;;;;;;;;;;22.25;27.88;97069.88;5076382;28;947;-75
2021/12/03 06:33:29;;;;;;;;;;;;;;;22.48;28.48;97051.44;5075460;28;971;-76
2021/12/03 06:35:54;;;;;;;;;;;;;;;22.84;27.55;97061.16;5075755;28;1295;-75
2021/12/03 06:38:20;;;;;;;;;;;;;;;22.81;27.53;97062.91;5061294;28;1912;-76
2021/12/03 06:40:45;;;;;;;;;;;;;;;21.95;28.62;97076.44;5093313;28;1977;-69
2021/12/03 06:43:11;;;;;;;;;;;;;;;21.48;30.14;97067.03;5095318;28;1557;-68
2021/12/03 06:45:36;;;;;;;;;;;;;;;22.20;29.37;97078.22;5097705;28;849;-68
2021/12/03 06:48:02;;;;;;;;;;;;;;;22.69;28.19;97072.41;5091992;28;1588;-75
2021/12/03 06:50:29;;;;;;;;;;;;;;;22.46;28.63;97076.66;5097720;28;2085;-76
2021/12/03 06:55:52;;;;;;;;;;;;;;;22.38;28.93;97068.94;5035294;28;1137;-75
2021/12/03 06:58:19;;;;;;;;;;;;;;;22.15;29.05;97073.97;5038767;28;1874;-75
2021/12/03 07:00:45;;;;;;;;;;;;;;;22.28;29.12;97083.13;4998397;28;1914;-76
2021/12/03 07:03:10;;;;;;;;;;;;;;;22.33;28.70;97074.00;4994030;28;1623;-75
2021/12/03 07:05:36;;;;;;;;;;;;;;;22.15;29.14;97088.13;4995618;28;2026;-75
2021/12/03 07:08:02;;;;;;;;;;;;;;;22.23;28.77;97080.91;4995158;28;1032;-75
2021/12/03 07:10:27;;;;;;;;;;;;;;;22.62;28.93;97079.16;4995869;28;943;-76
2021/12/03 07:12:53;;;;;;;;;;;;;;;22.83;28.35;97087.94;4995248;28;1027;-76
2021/12/03 07:15:18;;;;;;;;;;;;;;;22.75;28.17;97090.34;4995586;28;1018;-76
2021/12/03 07:17:45;;;;;;;;;;;;;;;22.48;28.65;97088.28;4995295;28;926;-75
2021/12/03 07:20:10;;;;;;;;;;;;;;;22.08;29.10;97097.72;4975450;28;1902;-76
2021/12/03 07:22:36;;;;;;;;;;;;;;;22.32;29.27;97111.28;4975554;28;962;-75
2021/12/03 07:25:02;;;;;;;;;;;;;;;22.75;28.51;97104.53;4957174;28;1276;-76
2021/12/03 07:27:27;;;;;;;;;;;;;;;22.91;28.19;97105.47;4941837;29;987;-76
2021/12/03 07:29:53;;;;;;;;;;;;;;;22.64;27.92;97109.88;4896080;29;997;-75
2021/12/03 07:32:19;;;;;;;;;;;;;;;22.67;28.04;97113.81;4918221;28;1004;-76
2021/12/03 07:34:44;;;;;;;;;;;;;;;22.42;28.21;97115.69;5003737;28;942;-75
2021/12/03 07:37:10;;;;;;;;;;;;;;;22.28;28.26;97128.47;5015296;28;1128;-76
2021/12/03 07:39:35;;;;;;;;;;;;;;;22.41;28.05;97128.31;5028648;28;1910;-75
2021/12/03 07:42:01;;;;;;;;;;;;;;;22.49;29.05;97129.56;5034859;28;1144;-76
2021/12/03 07:44:26;;;;;;;;;;;;;;;22.78;28.36;97131.13;5034452;28;892;-75
2021/12/03 07:46:52;;;;;;;;;;;;;;;22.86;28.07;97124.66;5018153;28;1135;-76
2021/12/03 07:49:17;;;;;;;;;;;;;;;22.71;27.99;97129.41;5034365;28;938;-75
2021/12/03 07:51:43;;;;;;;;;;;;;;;22.51;28.59;97137.59;5065346;28;901;-75
2021/12/03 07:54:08;;;;;;;;;;;;;;;22.49;28.29;97137.28;5076316;28;844;-75
2021/12/03 07:56:34;;;;;;;;;;;;;;;22.54;28.78;97139.50;5108546;28;975;-76
2021/12/03 07:58:59;;;;;;;;;;;;;;;22.68;28.67;97141.69;5076352;28;967;-75
2021/12/03 08:01:25;;;;;;;;;;;;;;;22.85;28.02;97131.59;5076801;28;1922;-76
2021/12/03 08:03:50;;;;;;;;;;;;;;;22.23;28.65;97146.09;5076411;28;981;-75
2021/12/03 08:06:16;;;;;;;;;;;;;;;22.11;28.85;97141.31;5076681;28;934;-76
2021/12/03 08:08:44;;;;;;;;;;;;;;;22.30;28.80;97142.94;5076282;28;1020;-75
2021/12/03 08:11:10;;;;;;;;;;;;;;;22.32;29.15;97136.78;5076620;28;927;-75
2021/12/03 08:13:35;;;;;;;;;;;;;;;22.65;28.43;97139.81;5075875;28;1117;-75
2021/12/03 08:16:01;;;;;;;;;;;;;;;22.71;27.94;97143.59;5076201;28;841;-75
2021/12/03 08:18:27;;;;;;;;;;;;;;;22.13;28.66;97161.50;5107900;28;1020;-75
2021/12/03 08:20:53;;;;;;;;;;;;;;;22.43;28.08;97161.84;5076146;28;1969;-75
2021/12/03 08:23:18;;;;;;;;;;;;;;;22.24;28.22;97161.81;5075950;28;925;-75
2021/12/03 08:25:44;;;;;;;;;;;;;;;22.54;29.29;97167.84;5076444;28;949;-75
2021/12/03 08:28:09;;;;;;;;;;;;;;;22.72;28.36;97167.84;5093639;28;993;-75
2021/12/03 08:30:35;;;;;;;;;;;;;;;22.86;27.87;97155.09;5094383;28;1066;-76
2021/12/03 08:33:00;;;;;;;;;;;;;;;22.61;28.07;97167.53;5093971;28;1060;-76
2021/12/03 08:35:25;;;;;;;;;;;;;;;22.51;28.25;97174.47;5093693;28;1076;-76
2021/12/03 08:37:51;;;;;;;;;;;;;;;22.20;28.85;97166.84;5093511;28;1067;-75
2021/12/03 08:40:17;;;;;;;;;;;;;;;22.48;28.76;97169.72;5093582;28;1898;-75
2021/12/03 08:42:43;;;;;;;;;;;;;;;22.65;28.52;97168.16;5093158;28;893;-75
2021/12/03 08:45:08;;;;;;;;;;;;;;;22.85;28.28;97165.66;5093738;28;904;-75
2021/12/03 08:47:35;;;;;;;;;;;;;;;22.69;28.01;97168.00;5093539;28;1054;-75
2021/12/03 08:50:04;;;;;;;;;;;;;;;22.45;28.57;97159.34;5060259;28;996;-75
2021/12/03 08:54:55;;;;;;;;;;;;;;;22.36;28.88;97166.56;5093632;28;908;-75
2021/12/03 08:57:31;;;;;;;;;;;;;;;22.64;28.43;97160.94;5093717;28;961;-76
2021/12/03 08:59:57;;;;;;;;;;;;;;;22.96;27.88;97153.06;5078494;28;1898;-75
2021/12/03 09:02:23;;;;;;;;;;;;;;;22.66;28.28;97124.38;5075686;28;864;-75
2021/12/03 09:04:49;;;;;;;;;;;;;;;22.42;28.43;97135.53;5075754;28;882;-75
2021/12/03 09:07:14;;;;;;;;;;;;;;;22.07;28.68;97141.47;5076083;28;951;-75
2021/12/03 09:09:40;;;;;;;;;;;;;;;22.29;29.07;97138.53;5075794;28;1008;-76
2021/12/03 09:12:06;;;;;;;;;;;;;;;22.82;28.49;97141.06;5075972;28;1000;-75
2021/12/03 09:14:37;;;;;;;;;;;;;;;22.87;27.86;97136.78;5075565;28;1006;-76
2021/12/03 09:24:58;;;;;;;;;;;;;;;22.35;29.18;97122.47;5072855;28;958;-75
2021/12/03 09:27:23;;;;;;;;;;;;;;;22.74;28.31;97114.28;5073264;28;938;-75
2021/12/03 09:29:51;;;;;;;;;;;;;;;22.82;28.17;97104.19;5072596;28;1246;-75
2021/12/03 09:32:22;;;;;;;;;;;;;;;22.69;27.99;97106.41;5072825;28;956;-75
2021/12/03 09:34:47;;;;;;;;;;;;;;;22.40;28.59;97123.13;5072464;28;1096;-75
2021/12/03 09:37:13;;;;;;;;;;;;;;;22.49;28.52;97117.44;5072732;28;1035;-76
2021/12/03 09:39:41;;;;;;;;;;;;;;;22.21;28.95;97106.09;5072515;28;1989;-75
2021/12/03 09:42:07;;;;;;;;;;;;;;;22.75;28.39;97095.22;5072845;28;1072;-75
2021/12/03 09:44:32;;;;;;;;;;;;;;;22.88;28.34;97090.97;5032285;28;1274;-75
2021/12/03 09:46:58;;;;;;;;;;;;;;;22.55;28.43;97090.03;5032750;28;1039;-75
2021/12/03 09:49:26;;;;;;;;;;;;;;;22.50;28.63;97087.84;5031012;28;928;-75
2021/12/03 09:56:50;;;;;;;;;;;;;;;22.51;29.03;97083.75;5013657;28;970;-75
2021/12/03 10:02:03;;;;;;;;;;;;;;;22.69;28.39;97083.75;5056194;28;954;-75
2021/12/03 10:15:46;;;;;;;;;;;;;;;22.71;28.59;97067.03;5006851;28;2014;-75
2021/12/03 10:18:19;;;;;;;;;;;;;;;22.44;28.61;97072.72;5015964;28;1148;-76
2021/12/03 10:20:51;;;;;;;;;;;;;;;22.31;28.93;97062.31;5016142;28;1989;-75
2021/12/03 10:32:18;;;;;;;;;;;;;;;22.88;28.23;97056.91;5015857;28;1014;-75
2021/12/03 10:39:45;;;;;;;;;;;;;;;22.41;28.78;97036.81;5015398;28;1903;-75
2021/12/03 11:37:11;;;;;;;;;;;;;;;22.21;29.18;97031.63;4795352;29;1144;-74
2021/12/03 11:43:08;;;;;;;;;;;;;;;22.92;28.71;97044.63;4826620;29;983;-74
2021/12/03 14:47:40;;;;;;;;;;;;;;;22.12;29.46;97137.22;4918099;29;1296;-76
2021/12/03 14:53:10;;;;;;;;;;;;;;;22.75;29.15;97132.88;4918072;29;1399;-76
2021/12/03 14:55:36;;;;;;;;;;;;;;;22.75;28.45;97132.88;4923529;29;1326;-76
2021/12/03 14:58:02;;;;;;;;;;;;;;;22.55;28.63;97143.91;4937789;29;1224;-76
2021/12/03 15:00:36;;;;;;;;;;;;;;;22.32;28.82;97151.75;4937742;29;1976;-76
2021/12/03 15:08:29;;;;;;;;;;;;;;;22.73;29.23;97141.06;5001376;28;1048;-76
2021/12/03 16:08:44;;;;;;;;;;;;;;;22.69;29.48;97197.16;4917477;29;1032;-76
2021/12/03 16:14:22;;;;;;;;;;;;;;;22.45;29.17;97196.19;4843052;29;938;-76
2021/12/03 16:22:25;;;;;;;;;;;;;;;22.63;29.62;97211.16;4861489;29;1433;-76
2021/12/03 16:43:56;;;;;;;;;;;;;;;22.25;29.33;97239.91;4955085;29;1050;-75
2021/12/03 16:46:50;;;;;;;;;;;;;;;22.39;28.76;97229.25;4956002;29;937;-76
2021/12/03 16:54:14;;;;;;;;;;;;;;;22.80;28.96;97244.91;4974246;28;994;-76
2021/12/03 16:56:49;;;;;;;;;;;;;;;22.57;29.19;97251.94;4974662;28;1208;-76
2021/12/03 16:59:15;;;;;;;;;;;;;;;22.46;29.10;97251.63;4974395;28;1083;-76
2021/12/03 17:49:47;;;;;;;;;;;;;;;22.86;29.17;97280.69;5012865;28;954;-76
2021/12/03 17:59:52;;;;;;;;;;;;;;;22.20;29.88;97268.84;5016385;28;1976;-76
2021/12/03 18:02:25;;;;;;;;;;;;;;;22.20;29.82;97274.53;5012826;28;1242;-75
2021/12/03 18:05:21;;;;;;;;;;;;;;;22.66;29.96;97277.50;5012972;28;929;-76
2021/12/03 18:11:03;;;;;;;;;;;;;;;22.25;30.17;97275.97;4897347;29;1047;-76
2021/12/03 18:14:05;;;;;;;;;;;;;;;22.09;30.44;97263.59;4834785;29;977;-76
2021/12/03 18:49:59;;;;;;;;;;;;;;;22.34;29.88;97319.31;4957213;28;1207;-76
2021/12/03 18:58:05;;;;;;;;;;;;;;;22.56;29.58;97321.25;5034818;28;1494;-77
2021/12/03 19:00:32;;;;;;;;;;;;;;;22.26;29.94;97323.66;5035180;28;1906;-76
2021/12/03 19:03:00;;;;;;;;;;;;;;;22.35;29.44;97326.53;5035181;28;967;-76
2021/12/03 19:08:14;;;;;;;;;;;;;;;22.52;30.52;97337.63;5035354;28;929;-76
2021/12/03 19:10:49;;;;;;;;;;;;;;;22.77;29.59;97348.72;5035267;28;1023;-75
2021/12/03 19:13:26;;;;;;;;;;;;;;;22.94;29.57;97342.81;5016519;28;954;-76
2021/12/03 19:15:51;;;;;;;;;;;;;;;22.60;29.41;97347.44;5015674;28;1011;-75
2021/12/03 19:18:21;;;;;;;;;;;;;;;22.40;29.95;97349.88;5015188;28;949;-76
2021/12/03 19:20:47;;;;;;;;;;;;;;;22.59;29.35;97345.84;5015436;28;1983;-76
2021/12/03 19:23:13;;;;;;;;;;;;;;;22.44;29.70;97344.84;5014928;28;927;-76
2021/12/03 19:25:38;;;;;;;;;;;;;;;22.38;29.49;97346.69;4998846;28;1102;-75
2021/12/03 19:28:04;;;;;;;;;;;;;;;22.27;29.80;97345.06;5018196;28;1004;-76
2021/12/03 19:30:29;;;;;;;;;;;;;;;22.44;29.51;97344.84;5054707;28;1004;-76
2021/12/03 19:32:55;;;;;;;;;;;;;;;22.59;30.42;97351.53;5054692;28;960;-76
2021/12/03 19:35:20;;;;;;;;;;;;;;;22.76;29.79;97350.00;5056221;28;998;-76
2021/12/03 19:37:49;;;;;;;;;;;;;;;22.68;29.61;97336.56;5077048;28;1085;-76
2021/12/03 19:40:15;;;;;;;;;;;;;;;22.48;30.01;97339.81;5077186;28;1985;-76
2021/12/03 19:42:56;;;;;;;;;;;;;;;22.19;30.31;97334.50;5076717;28;989;-76
2021/12/03 19:45:24;;;;;;;;;;;;;;;22.30;30.06;97338.50;5076778;28;900;-76
2021/12/03 19:53:01;;;;;;;;;;;;;;;22.55;29.97;97346.00;5076913;28;919;-76
2021/12/03 19:55:27;;;;;;;;;;;;;;;22.41;29.75;97340.09;5076342;28;1034;-76
2021/12/03 19:57:53;;;;;;;;;;;;;;;22.48;29.80;97345.47;5075460;28;1361;-76
2021/12/03 20:00:18;;;;;;;;;;;;;;;22.35;29.99;97343.56;5057764;28;1910;-76
2021/12/03 20:02:44;;;;;;;;;;;;;;;22.27;29.73;97342.25;5075335;28;971;-76
2021/12/03 20:05:09;;;;;;;;;;;;;;;22.16;31.02;97341.09;5076875;28;928;-76
2021/12/03 20:07:35;;;;;;;;;;;;;;;22.70;30.48;97337.69;5076524;28;1008;-76
2021/12/03 20:10:03;;;;;;;;;;;;;;;22.94;29.58;97334.28;5075954;28;959;-76
2021/12/03 20:12:31;;;;;;;;;;;;;;;22.59;29.90;97340.19;5075940;28;1141;-76
2021/12/03 20:14:57;;;;;;;;;;;;;;;22.30;30.10;97335.66;5076372;28;902;-75
2021/12/03 20:17:30;;;;;;;;;;;;;;;22.36;29.91;97336.63;5076586;28;977;-75
2021/12/03 20:19:58;;;;;;;;;;;;;;;22.24;29.82;97331.84;5076206;28;1889;-76
2021/12/03 20:27:41;;;;;;;;;;;;;;;22.66;29.74;97314.34;5076424;28;917;-76
2021/12/03 20:30:14;;;;;;;;;;;;;;;22.20;30.23;97319.09;5076187;28;928;-76
2021/12/03 20:32:47;;;;;;;;;;;;;;;22.11;30.48;97316.97;5073273;28;967;-76
2021/12/03 20:37:56;;;;;;;;;;;;;;;22.46;30.57;97325.31;5072674;28;1255;-75
2021/12/03 20:40:25;;;;;;;;;;;;;;;22.62;30.16;97323.00;5073120;28;1985;-76
2021/12/03 21:09:33;;;;;;;;;;;;;;;22.71;30.21;97353.44;5013257;28;1043;-76
2021/12/03 21:12:02;;;;;;;;;;;;;;;22.85;29.58;97352.84;4973967;28;1028;-76
2021/12/03 21:14:31;;;;;;;;;;;;;;;22.41;29.97;97345.78;4935467;29;954;-76
2021/12/03 21:17:03;;;;;;;;;;;;;;;22.31;29.62;97359.91;4920252;29;1173;-76
2021/12/03 21:19:36;;;;;;;;;;;;;;;22.42;30.01;97367.19;4916398;29;999;-76
2021/12/03 21:22:11;;;;;;;;;;;;;;;22.80;29.82;97366.88;4916693;29;1949;-76
2021/12/03 21:24:38;;;;;;;;;;;;;;;22.85;29.58;97366.25;4916661;29;953;-75
2021/12/03 21:27:09;;;;;;;;;;;;;;;22.55;29.86;97351.66;4904895;29;1043;-76
2021/12/03 21:32:17;;;;;;;;;;;;;;;22.40;29.51;97366.88;4897946;29;1034;-75
2021/12/03 21:40:17;;;;;;;;;;;;;;;22.17;29.87;97383.13;4916656;29;1918;-76
2021/12/03 21:42:43;;;;;;;;;;;;;;;22.55;30.78;97384.91;4923563;29;936;-76
2021/12/03 21:45:08;;;;;;;;;;;;;;;22.68;30.37;97373.44;4950446;28;1029;-76
2021/12/03 21:47:34;;;;;;;;;;;;;;;22.76;30.11;97378.34;4973931;28;1141;-75
2021/12/03 21:49:59;;;;;;;;;;;;;;;22.64;29.75;97387.78;4982011;28;918;-75
2021/12/03 21:52:26;;;;;;;;;;;;;;;22.16;30.47;97387.22;5006843;28;991;-76
2021/12/03 21:54:52;;;;;;;;;;;;;;;22.17;30.27;97385.97;5036517;28;980;-76